createdAt,value
2016-06-16T00:00:41.537Z,0
2016-06-16T00:01:41.557Z,0
2016-06-16T00:02:41.528Z,0
2016-06-16T00:03:41.469Z,0
2016-06-16T00:04:41.315Z,0
2016-06-16T00:05:41.427Z,0
2016-06-16T00:06:41.415Z,0
2016-06-16T00:07:41.387Z,0
2016-06-16T00:08:41.375Z,0
2016-06-16T00:09:41.346Z,0
2016-06-16T00:10:41.193Z,0
2016-06-16T00:11:41.321Z,0
2016-06-16T00:12:41.277Z,0
2016-06-16T00:13:41.109Z,0
2016-06-16T00:14:41.236Z,0
2016-06-16T00:15:41.239Z,0
2016-06-16T00:16:41.212Z,0
2016-06-16T00:17:41.184Z,0
2016-06-16T00:18:40.998Z,0
2016-06-16T00:19:41.143Z,0
2016-06-16T00:20:41.115Z,0
2016-06-16T00:21:41.086Z,0
2016-06-16T00:22:41.074Z,0
2016-06-16T00:23:41.061Z,0
2016-06-16T00:24:41.033Z,0
2016-06-16T00:25:41.489Z,0
2016-06-16T00:26:40.992Z,0
2016-06-16T00:27:40.964Z,0
2016-06-16T00:28:40.936Z,0
2016-06-16T00:29:40.907Z,0
2016-06-16T00:30:40.896Z,0
2016-06-16T00:31:40.867Z,0
2016-06-16T00:32:40.870Z,0
2016-06-16T00:33:40.841Z,0
2016-06-16T00:34:40.798Z,0
2016-06-16T00:35:40.629Z,0
2016-06-16T00:36:40.757Z,0
2016-06-16T00:37:40.745Z,0
2016-06-16T00:38:40.748Z,0
2016-06-16T00:39:40.704Z,0
2016-06-16T00:40:41.207Z,0
2016-06-16T00:41:40.648Z,0
2016-06-16T00:42:40.635Z,0
2016-06-16T00:43:40.622Z,0
2016-06-16T00:44:40.439Z,0
2016-06-16T00:45:40.582Z,0
2016-06-16T00:46:40.553Z,0
2016-06-16T00:47:40.526Z,0
2016-06-16T00:48:40.513Z,0
2016-06-16T00:49:40.469Z,0
2016-06-16T00:50:40.457Z,0
2016-06-16T00:51:40.444Z,0
2016-06-16T00:52:40.416Z,0
2016-06-16T00:53:40.388Z,0
2016-06-16T00:54:40.359Z,0
2016-06-16T00:55:40.816Z,0
2016-06-16T00:56:40.209Z,0
2016-06-16T00:57:40.291Z,0
2016-06-16T00:58:40.279Z,0
2016-06-16T00:59:40.282Z,0
2016-06-16T01:00:40.252Z,0
2016-06-16T01:01:40.225Z,0
2016-06-16T01:02:40.197Z,0
2016-06-16T01:03:40.169Z,0
2016-06-16T01:04:40.172Z,0
2016-06-16T01:05:40.143Z,0
2016-06-16T01:06:40.099Z,0
2016-06-16T01:07:40.087Z,0
2016-06-16T01:08:40.075Z,0
2016-06-16T01:09:40.093Z,0
2016-06-16T01:10:40.862Z,0
2016-06-16T01:11:40.053Z,0
2016-06-16T01:12:40.040Z,0
2016-06-16T01:13:40.058Z,0
2016-06-16T01:14:39.828Z,0
2016-06-16T01:15:39.909Z,0
2016-06-16T01:16:39.896Z,0
2016-06-16T01:17:39.852Z,0
2016-06-16T01:18:39.840Z,0
2016-06-16T01:19:39.811Z,0
2016-06-16T01:20:39.534Z,0
2016-06-16T01:21:39.786Z,0
2016-06-16T01:22:39.758Z,0
2016-06-16T01:23:39.730Z,0
2016-06-16T01:24:39.717Z,0
2016-06-16T01:25:39.549Z,0
2016-06-16T01:26:39.536Z,0
2016-06-16T01:27:39.649Z,0
2016-06-16T01:28:39.635Z,0
2016-06-16T01:29:39.608Z,0
2016-06-16T01:30:39.580Z,0
2016-06-16T01:31:39.567Z,0
2016-06-16T01:32:39.539Z,0
2016-06-16T01:33:39.354Z,0
2016-06-16T01:34:39.498Z,0
2016-06-16T01:35:39.485Z,0
2016-06-16T01:36:39.441Z,0
2016-06-16T01:37:39.413Z,0
2016-06-16T01:38:39.245Z,0
2016-06-16T01:39:39.232Z,0
2016-06-16T01:40:39.969Z,0
2016-06-16T01:41:39.348Z,0
2016-06-16T01:42:39.320Z,0
2016-06-16T01:43:39.276Z,0
2016-06-16T01:44:39.279Z,0
2016-06-16T01:45:39.266Z,0
2016-06-16T01:46:39.222Z,0
2016-06-16T01:47:39.194Z,0
2016-06-16T01:48:39.182Z,0
2016-06-16T01:49:39.186Z,0
2016-06-16T01:50:39.141Z,0
2016-06-16T01:51:39.112Z,0
2016-06-16T01:52:39.085Z,0
2016-06-16T01:53:39.073Z,0
2016-06-16T01:54:38.903Z,0
2016-06-16T01:55:39.265Z,0
2016-06-16T01:56:38.910Z,0
2016-06-16T01:57:38.975Z,0
2016-06-16T01:58:38.963Z,0
2016-06-16T01:59:38.950Z,0
2016-06-16T02:00:38.890Z,0
2016-06-16T02:01:38.878Z,0
2016-06-16T02:02:38.882Z,0
2016-06-16T02:03:38.837Z,0
2016-06-16T02:04:38.857Z,0
2016-06-16T02:05:38.796Z,0
2016-06-16T02:06:38.784Z,0
2016-06-16T02:07:38.771Z,0
2016-06-16T02:08:38.572Z,0
2016-06-16T02:09:38.731Z,0
2016-06-16T02:10:38.546Z,0
2016-06-16T02:11:39.956Z,0
2016-06-16T02:12:38.662Z,0
2016-06-16T02:13:38.618Z,0
2016-06-16T02:14:38.465Z,0
2016-06-16T02:15:38.577Z,0
2016-06-16T02:16:38.550Z,0
2016-06-16T02:17:38.536Z,0
2016-06-16T02:18:38.508Z,0
2016-06-16T02:19:38.481Z,0
2016-06-16T02:20:38.484Z,0
2016-06-16T02:21:38.439Z,0
2016-06-16T02:22:38.427Z,0
2016-06-16T02:23:38.415Z,0
2016-06-16T02:24:38.371Z,0
2016-06-16T02:25:38.374Z,0
2016-06-16T02:26:38.205Z,0
2016-06-16T02:27:38.317Z,0
2016-06-16T02:28:38.306Z,0
2016-06-16T02:29:38.276Z,0
2016-06-16T02:30:38.232Z,0
2016-06-16T02:31:38.220Z,0
2016-06-16T02:32:38.208Z,0
2016-06-16T02:33:38.179Z,0
2016-06-16T02:34:38.152Z,0
2016-06-16T02:35:38.123Z,0
2016-06-16T02:36:38.095Z,0
2016-06-16T02:37:38.067Z,0
2016-06-16T02:38:38.054Z,0
2016-06-16T02:39:38.042Z,0
2016-06-16T02:40:38.013Z,0
2016-06-16T02:41:37.845Z,0
2016-06-16T02:42:37.988Z,0
2016-06-16T02:43:37.944Z,0
2016-06-16T02:44:37.933Z,0
2016-06-16T02:45:37.748Z,0
2016-06-16T02:46:37.875Z,0
2016-06-16T02:47:37.847Z,0
2016-06-16T02:48:37.851Z,0
2016-06-16T02:49:37.823Z,0
2016-06-16T02:50:37.793Z,0
2016-06-16T02:51:37.454Z,0
2016-06-16T02:52:37.754Z,0
2016-06-16T02:53:37.569Z,0
2016-06-16T02:54:37.541Z,0
2016-06-16T02:55:37.685Z,0
2016-06-16T02:56:37.984Z,0
2016-06-16T02:57:37.628Z,0
2016-06-16T02:58:37.601Z,0
2016-06-16T02:59:37.588Z,0
2016-06-16T03:00:37.560Z,0
2016-06-16T03:01:37.547Z,0
2016-06-16T03:02:37.378Z,0
2016-06-16T03:03:37.522Z,5
2016-06-16T03:04:37.494Z,5
2016-06-16T03:05:37.294Z,5
2016-06-16T03:06:37.265Z,5
2016-06-16T03:07:37.426Z,5
2016-06-16T03:08:37.396Z,5
2016-06-16T03:09:37.352Z,5
2016-06-16T03:10:37.340Z,5
2016-06-16T03:11:38.578Z,5
2016-06-16T03:12:37.300Z,5
2016-06-16T03:13:37.271Z,10
2016-06-16T03:14:37.258Z,10
2016-06-16T03:15:37.215Z,10
2016-06-16T03:16:37.203Z,10
2016-06-16T03:17:37.190Z,10
2016-06-16T03:18:37.162Z,10
2016-06-16T03:19:37.149Z,10
2016-06-16T03:20:37.105Z,15
2016-06-16T03:21:37.077Z,15
2016-06-16T03:22:37.096Z,15
2016-06-16T03:23:37.052Z,15
2016-06-16T03:24:37.024Z,15
2016-06-16T03:25:36.995Z,15
2016-06-16T03:26:36.998Z,20
2016-06-16T03:27:36.955Z,20
2016-06-16T03:28:36.927Z,20
2016-06-16T03:29:36.913Z,15
2016-06-16T03:30:36.871Z,20
2016-06-16T03:31:36.858Z,20
2016-06-16T03:32:36.830Z,20
2016-06-16T03:33:36.817Z,15
2016-06-16T03:34:36.789Z,20
2016-06-16T03:35:36.761Z,20
2016-06-16T03:36:36.749Z,20
2016-06-16T03:37:36.720Z,20
2016-06-16T03:38:36.691Z,20
2016-06-16T03:39:36.679Z,20
2016-06-16T03:40:36.651Z,25
2016-06-16T03:41:37.373Z,25
2016-06-16T03:42:36.610Z,30
2016-06-16T03:43:36.581Z,30
2016-06-16T03:44:36.570Z,30
2016-06-16T03:45:36.541Z,30
2016-06-16T03:46:36.513Z,30
2016-06-16T03:47:36.485Z,30
2016-06-16T03:48:36.472Z,30
2016-06-16T03:49:36.288Z,30
2016-06-16T03:50:36.417Z,35
2016-06-16T03:51:36.388Z,35
2016-06-16T03:52:36.391Z,35
2016-06-16T03:53:36.362Z,35
2016-06-16T03:54:36.351Z,40
2016-06-16T03:55:36.306Z,40
2016-06-16T03:56:36.294Z,40
2016-06-16T03:57:36.110Z,40
2016-06-16T03:58:36.238Z,40
2016-06-16T03:59:36.210Z,40
2016-06-16T04:00:36.197Z,45
2016-06-16T04:01:36.184Z,45
2016-06-16T04:02:36.156Z,45
2016-06-16T04:03:35.988Z,50
2016-06-16T04:04:36.100Z,50
2016-06-16T04:05:36.071Z,50
2016-06-16T04:06:36.059Z,55
2016-06-16T04:07:36.047Z,50
2016-06-16T04:08:36.018Z,55
2016-06-16T04:09:35.990Z,55
2016-06-16T04:10:35.962Z,50
2016-06-16T04:11:36.418Z,55
2016-06-16T04:12:35.921Z,50
2016-06-16T04:13:35.908Z,50
2016-06-16T04:14:35.881Z,50
2016-06-16T04:15:35.868Z,60
2016-06-16T04:16:35.874Z,60
2016-06-16T04:17:35.870Z,65
2016-06-16T04:18:35.897Z,60
2016-06-16T04:19:35.909Z,60
2016-06-16T04:20:35.936Z,60
2016-06-16T04:21:35.937Z,60
2016-06-16T04:22:35.922Z,65
2016-06-16T04:23:35.924Z,65
2016-06-16T04:24:35.911Z,65
2016-06-16T04:25:35.896Z,75
2016-06-16T04:26:36.097Z,80
2016-06-16T04:27:35.730Z,70
2016-06-16T04:28:35.691Z,65
2016-06-16T04:29:35.855Z,75
2016-06-16T04:30:35.816Z,80
2016-06-16T04:31:35.792Z,75
2016-06-16T04:32:35.797Z,70
2016-06-16T04:33:35.771Z,70
2016-06-16T04:34:35.745Z,70
2016-06-16T04:35:35.717Z,80
2016-06-16T04:36:35.691Z,70
2016-06-16T04:37:35.695Z,65
2016-06-16T04:38:35.652Z,80
2016-06-16T04:39:35.641Z,75
2016-06-16T04:40:35.613Z,80
2016-06-16T04:41:36.773Z,90
2016-06-16T04:42:35.433Z,85
2016-06-16T04:43:35.405Z,90
2016-06-16T04:44:35.534Z,95
2016-06-16T04:45:35.505Z,100
2016-06-16T04:46:35.477Z,130
2016-06-16T04:47:35.324Z,120
2016-06-16T04:48:35.453Z,160
2016-06-16T04:49:35.439Z,140
2016-06-16T04:50:35.412Z,135
2016-06-16T04:51:35.368Z,130
2016-06-16T04:52:35.355Z,150
2016-06-16T04:53:35.343Z,180
2016-06-16T04:54:35.315Z,185
2016-06-16T04:55:35.302Z,175
2016-06-16T04:56:36.180Z,155
2016-06-16T04:57:35.653Z,140
2016-06-16T04:58:35.217Z,130
2016-06-16T04:59:35.205Z,140
2016-06-16T05:00:35.192Z,155
2016-06-16T05:01:35.164Z,190
2016-06-16T05:02:35.151Z,190
2016-06-16T05:03:35.108Z,230
2016-06-16T05:04:35.111Z,270
2016-06-16T05:05:35.082Z,265
2016-06-16T05:06:35.055Z,400
2016-06-16T05:07:35.042Z,435
2016-06-16T05:08:35.014Z,415
2016-06-16T05:09:35.001Z,485
2016-06-16T05:10:34.973Z,355
2016-06-16T05:11:35.101Z,535
2016-06-16T05:12:34.636Z,460
2016-06-16T05:13:34.920Z,395
2016-06-16T05:14:34.923Z,330
2016-06-16T05:15:34.880Z,325
2016-06-16T05:16:34.866Z,280
2016-06-16T05:17:34.823Z,305
2016-06-16T05:18:34.810Z,340
2016-06-16T05:19:34.798Z,430
2016-06-16T05:20:34.785Z,480
2016-06-16T05:21:34.757Z,575
2016-06-16T05:22:34.729Z,600
2016-06-16T05:23:34.716Z,600
2016-06-16T05:24:34.719Z,580
2016-06-16T05:25:34.691Z,530
2016-06-16T05:26:35.148Z,385
2016-06-16T05:27:34.917Z,325
2016-06-16T05:28:34.623Z,315
2016-06-16T05:29:34.609Z,300
2016-06-16T05:30:34.596Z,295
2016-06-16T05:31:34.569Z,280
2016-06-16T05:32:34.557Z,270
2016-06-16T05:33:34.528Z,290
2016-06-16T05:34:34.359Z,300
2016-06-16T05:35:34.487Z,300
2016-06-16T05:36:34.475Z,305
2016-06-16T05:37:34.462Z,305
2016-06-16T05:38:34.293Z,305
2016-06-16T05:39:34.437Z,310
2016-06-16T05:40:34.409Z,305
2016-06-16T05:41:34.396Z,335
2016-06-16T05:42:34.947Z,330
2016-06-16T05:43:34.341Z,350
2016-06-16T05:44:34.312Z,420
2016-06-16T05:45:34.315Z,455
2016-06-16T05:46:34.303Z,570
2016-06-16T05:47:34.289Z,635
2016-06-16T05:48:34.262Z,700
2016-06-16T05:49:34.234Z,780
2016-06-16T05:50:34.221Z,840
2016-06-16T05:51:34.193Z,880
2016-06-16T05:52:34.196Z,890
2016-06-16T05:53:34.167Z,925
2016-06-16T05:54:34.156Z,920
2016-06-16T05:55:34.128Z,950
2016-06-16T05:56:34.943Z,950
2016-06-16T05:57:34.430Z,645
2016-06-16T05:58:34.074Z,655
2016-06-16T05:59:34.060Z,925
2016-06-16T06:00:34.048Z,945
2016-06-16T06:01:34.036Z,970
2016-06-16T06:02:34.008Z,1005
2016-06-16T06:03:33.995Z,1065
2016-06-16T06:04:33.983Z,890
2016-06-16T06:05:34.001Z,795
2016-06-16T06:06:33.973Z,735
2016-06-16T06:07:33.961Z,715
2016-06-16T06:08:33.933Z,845
2016-06-16T06:09:33.921Z,885
2016-06-16T06:10:33.892Z,660
2016-06-16T06:11:33.723Z,705
2016-06-16T06:12:34.194Z,840
2016-06-16T06:13:33.853Z,885
2016-06-16T06:14:33.842Z,915
2016-06-16T06:15:33.845Z,940
2016-06-16T06:16:33.660Z,930
2016-06-16T06:17:33.804Z,1090
2016-06-16T06:18:33.791Z,1165
2016-06-16T06:19:33.780Z,1245
2016-06-16T06:20:33.750Z,1240
2016-06-16T06:21:33.754Z,1240
2016-06-16T06:22:33.741Z,1155
2016-06-16T06:23:33.729Z,1160
2016-06-16T06:24:33.559Z,1165
2016-06-16T06:25:33.704Z,965
2016-06-16T06:26:33.598Z,1130
2016-06-16T06:27:34.351Z,1150
2016-06-16T06:28:33.650Z,1155
2016-06-16T06:29:33.653Z,1140
2016-06-16T06:30:33.656Z,1195
2016-06-16T06:31:33.628Z,1235
2016-06-16T06:32:33.616Z,1250
2016-06-16T06:33:33.603Z,1250
2016-06-16T06:34:33.591Z,1275
2016-06-16T06:35:33.579Z,1285
2016-06-16T06:36:33.410Z,1300
2016-06-16T06:37:33.584Z,1400
2016-06-16T06:38:33.571Z,1410
2016-06-16T06:39:33.544Z,1390
2016-06-16T06:40:33.547Z,1295
2016-06-16T06:41:33.534Z,1375
2016-06-16T06:42:33.615Z,1375
2016-06-16T06:43:33.509Z,1335
2016-06-16T06:44:33.512Z,1285
2016-06-16T06:45:33.546Z,1295
2016-06-16T06:46:33.487Z,1320
2016-06-16T06:47:33.474Z,1305
2016-06-16T06:48:33.462Z,1315
2016-06-16T06:49:33.465Z,1220
2016-06-16T06:50:33.453Z,1190
2016-06-16T06:51:33.439Z,1255
2016-06-16T06:52:33.443Z,1255
2016-06-16T06:53:33.430Z,1290
2016-06-16T06:54:33.418Z,1340
2016-06-16T06:55:33.437Z,1030
2016-06-16T06:56:33.393Z,1275
2016-06-16T06:57:33.364Z,1510
2016-06-16T06:58:33.383Z,1475
2016-06-16T06:59:33.370Z,1325
2016-06-16T07:00:33.373Z,1225
2016-06-16T07:01:33.345Z,1185
2016-06-16T07:02:33.349Z,1490
2016-06-16T07:03:33.368Z,1425
2016-06-16T07:04:33.354Z,1370
2016-06-16T07:05:33.357Z,1420
2016-06-16T07:06:33.174Z,1400
2016-06-16T07:07:33.333Z,1420
2016-06-16T07:08:33.305Z,1415
2016-06-16T07:09:33.292Z,1450
2016-06-16T07:10:33.295Z,1470
2016-06-16T07:11:33.282Z,1465
2016-06-16T07:12:33.207Z,1425
2016-06-16T07:13:33.288Z,1380
2016-06-16T07:14:33.291Z,1280
2016-06-16T07:15:33.264Z,990
2016-06-16T07:16:33.095Z,1420
2016-06-16T07:17:33.239Z,1355
2016-06-16T07:18:33.241Z,1350
2016-06-16T07:19:33.261Z,1495
2016-06-16T07:20:33.232Z,1255
2016-06-16T07:21:33.220Z,1200
2016-06-16T07:22:33.223Z,1370
2016-06-16T07:23:33.194Z,1225
2016-06-16T07:24:33.198Z,1350
2016-06-16T07:25:33.232Z,1370
2016-06-16T07:26:33.188Z,1545
2016-06-16T07:27:33.910Z,1345
2016-06-16T07:28:33.194Z,1175
2016-06-16T07:29:33.026Z,1050
2016-06-16T07:30:33.169Z,1405
2016-06-16T07:31:33.172Z,465
2016-06-16T07:32:45.894Z,1105
2016-06-16T07:33:32.991Z,1395
2016-06-16T07:34:33.135Z,1435
2016-06-16T07:48:37.552Z,1460
2016-06-16T07:48:46.630Z,1490
2016-06-16T07:48:59.052Z,1545
2016-06-16T07:49:59.071Z,1490
2016-06-16T07:50:59.042Z,1545
2016-06-16T07:51:59.061Z,1555
2016-06-16T07:52:58.877Z,1620
2016-06-16T07:53:58.864Z,1660
2016-06-16T07:54:59.024Z,1515
2016-06-16T07:55:58.855Z,550
2016-06-16T07:56:59.030Z,420
2016-06-16T07:57:58.688Z,405
2016-06-16T07:58:58.988Z,490
2016-06-16T07:59:59.008Z,1295
2016-06-16T08:00:58.855Z,1090
2016-06-16T08:01:58.967Z,1020
2016-06-16T08:02:58.814Z,1000
2016-06-16T08:03:58.817Z,1030
2016-06-16T08:04:58.960Z,1240
2016-06-16T08:05:58.963Z,1085
2016-06-16T08:06:58.952Z,1690
2016-06-16T08:07:58.799Z,1290
2016-06-16T08:08:58.942Z,1195
2016-06-16T08:09:58.773Z,1155
2016-06-16T08:10:58.604Z,1230
2016-06-16T08:11:58.935Z,1370
2016-06-16T08:12:58.923Z,1225
2016-06-16T08:13:58.754Z,910
2016-06-16T08:14:58.928Z,600
2016-06-16T08:15:58.901Z,430
2016-06-16T08:16:58.732Z,350
2016-06-16T08:17:58.719Z,325
2016-06-16T08:18:58.739Z,310
2016-06-16T08:19:58.897Z,315
2016-06-16T08:20:58.869Z,325
2016-06-16T08:21:58.717Z,365
2016-06-16T08:22:58.844Z,465
2016-06-16T08:23:58.832Z,535
2016-06-16T08:24:58.678Z,425
2016-06-16T08:25:58.665Z,400
2016-06-16T08:26:58.512Z,520
2016-06-16T08:27:58.672Z,355
2016-06-16T08:28:58.644Z,340
2016-06-16T08:29:58.631Z,320
2016-06-16T08:30:58.790Z,325
2016-06-16T08:31:58.778Z,375
2016-06-16T08:32:58.656Z,425
2016-06-16T08:33:58.768Z,775
2016-06-16T08:34:58.600Z,435
2016-06-16T08:35:58.744Z,430
2016-06-16T08:36:58.716Z,710
2016-06-16T08:37:58.561Z,805
2016-06-16T08:38:58.706Z,845
2016-06-16T08:39:58.537Z,830
2016-06-16T08:40:58.681Z,915
2016-06-16T08:41:58.512Z,690
2016-06-16T08:42:58.672Z,630
2016-06-16T08:43:58.660Z,810
2016-06-16T08:44:58.475Z,1010
2016-06-16T08:45:58.462Z,1680
2016-06-16T08:46:58.622Z,1650
2016-06-16T08:48:22.378Z,420
2016-06-16T08:48:34.815Z,435
2016-06-16T08:49:34.631Z,410
2016-06-16T08:50:34.791Z,390
2016-06-16T08:51:34.605Z,1590
2016-06-16T08:52:34.608Z,1435
2016-06-16T08:53:34.753Z,860
2016-06-16T08:54:34.740Z,1435
2016-06-16T08:55:34.587Z,1675
2016-06-16T08:56:34.730Z,1660
2016-06-16T08:57:34.734Z,1455
2016-06-16T08:58:34.533Z,1420
2016-06-16T08:59:34.537Z,860
2016-06-16T09:00:34.665Z,560
2016-06-16T09:01:34.496Z,535
2016-06-16T09:02:34.499Z,520
2016-06-16T09:03:34.486Z,510
2016-06-16T09:04:34.645Z,490
2016-06-16T09:05:34.478Z,485
2016-06-16T09:06:34.480Z,500
2016-06-16T09:07:34.467Z,490
2016-06-16T09:08:34.611Z,435
2016-06-16T09:09:34.599Z,475
2016-06-16T09:10:34.586Z,475
2016-06-16T09:11:34.589Z,470
2016-06-16T09:12:34.560Z,475
2016-06-16T09:13:34.392Z,470
2016-06-16T09:14:34.380Z,465
2016-06-16T09:15:34.398Z,470
2016-06-16T09:16:34.526Z,465
2016-06-16T09:17:34.514Z,460
2016-06-16T09:18:34.360Z,460
2016-06-16T09:19:34.349Z,455
2016-06-16T09:20:34.491Z,465
2016-06-16T09:21:34.464Z,465
2016-06-16T09:22:34.325Z,465
2016-06-16T09:23:34.141Z,495
2016-06-16T09:24:34.442Z,505
2016-06-16T09:25:34.445Z,460
2016-06-16T09:26:34.260Z,440
2016-06-16T09:27:34.388Z,430
2016-06-16T09:28:34.235Z,440
2016-06-16T09:29:34.238Z,425
2016-06-16T09:30:34.366Z,395
2016-06-16T09:31:34.353Z,370
2016-06-16T09:32:34.185Z,355
2016-06-16T09:33:34.376Z,345
2016-06-16T09:34:34.019Z,380
2016-06-16T09:35:34.007Z,410
2016-06-16T09:36:34.135Z,420
2016-06-16T09:37:34.122Z,430
2016-06-16T09:38:34.281Z,425
2016-06-16T09:39:34.269Z,420
2016-06-16T09:40:34.241Z,405
2016-06-16T09:41:34.072Z,395
2016-06-16T09:42:34.231Z,405
2016-06-16T09:43:34.234Z,405
2016-06-16T09:44:34.190Z,410
2016-06-16T09:45:34.443Z,415
2016-06-16T09:46:34.150Z,400
2016-06-16T09:47:34.152Z,380
2016-06-16T09:48:33.984Z,370
2016-06-16T09:49:34.128Z,365
2016-06-16T09:50:34.115Z,370
2016-06-16T09:51:34.103Z,385
2016-06-16T09:52:34.075Z,405
2016-06-16T09:53:34.078Z,405
2016-06-16T09:54:34.220Z,390
2016-06-16T09:55:33.896Z,385
2016-06-16T09:56:34.024Z,345
2016-06-16T09:57:33.402Z,340
2016-06-16T09:58:33.999Z,350
2016-06-16T09:59:33.986Z,375
2016-06-16T10:00:33.989Z,375
2016-06-16T10:01:33.820Z,365
2016-06-16T10:02:33.965Z,385
2016-06-16T10:03:34.999Z,395
2016-06-16T10:04:33.471Z,400
2016-06-16T10:05:34.037Z,420
2016-06-16T10:06:34.086Z,445
2016-06-16T10:07:34.667Z,455
2016-06-16T10:08:34.514Z,455
2016-06-16T10:09:34.064Z,450
2016-06-16T10:10:33.536Z,465
2016-06-16T10:11:33.664Z,480
2016-06-16T10:12:33.667Z,480
2016-06-16T10:13:33.654Z,495
2016-06-16T10:14:33.627Z,505
2016-06-16T10:15:33.786Z,515
2016-06-16T10:16:33.757Z,515
2016-06-16T10:17:33.761Z,515
2016-06-16T10:18:33.576Z,530
2016-06-16T10:19:33.564Z,535
2016-06-16T10:20:33.708Z,535
2016-06-16T10:21:33.711Z,535
2016-06-16T10:22:33.698Z,500
2016-06-16T10:23:33.529Z,490
2016-06-16T10:24:33.641Z,505
2016-06-16T10:25:33.644Z,505
2016-06-16T10:26:33.632Z,495
2016-06-16T10:27:33.308Z,500
2016-06-16T10:28:33.310Z,505
2016-06-16T10:29:33.611Z,515
2016-06-16T10:30:33.582Z,525
2016-06-16T10:31:33.413Z,515
2016-06-16T10:32:33.557Z,515
2016-06-16T10:33:33.544Z,500
2016-06-16T10:34:33.375Z,490
2016-06-16T10:35:33.504Z,495
2016-06-16T10:36:33.507Z,490
2016-06-16T10:37:33.478Z,480
2016-06-16T10:38:33.481Z,495
2016-06-16T10:39:33.312Z,525
2016-06-16T10:40:33.129Z,550
2016-06-16T10:41:33.272Z,540
2016-06-16T10:42:33.415Z,515
2016-06-16T10:43:33.262Z,500
2016-06-16T10:44:33.407Z,500
2016-06-16T10:45:33.394Z,490
2016-06-16T10:46:33.209Z,480
2016-06-16T10:47:33.353Z,470
2016-06-16T10:48:33.028Z,470
2016-06-16T10:49:33.328Z,475
2016-06-16T10:50:33.175Z,470
2016-06-16T10:51:33.146Z,470
2016-06-16T10:52:33.306Z,465
2016-06-16T10:53:33.277Z,475
2016-06-16T10:54:33.266Z,480
2016-06-16T10:55:33.252Z,495
2016-06-16T10:56:33.240Z,510
2016-06-16T10:57:33.228Z,520
2016-06-16T10:58:33.215Z,530
2016-06-16T10:59:33.217Z,540
2016-06-16T11:00:33.206Z,555
2016-06-16T11:01:33.162Z,565
2016-06-16T11:02:33.180Z,570
2016-06-16T11:03:33.153Z,580
2016-06-16T11:04:33.124Z,585
2016-06-16T11:07:54.649Z,550
2016-06-16T11:09:45.186Z,535
2016-06-16T11:09:57.624Z,535
2016-06-16T11:10:57.611Z,515
2016-06-16T11:11:57.583Z,500
2016-06-16T11:13:41.652Z,500
2016-06-16T11:13:57.605Z,505
2016-06-16T11:14:57.546Z,510
2016-06-16T11:15:57.533Z,505
2016-06-16T11:16:57.536Z,505
2016-06-16T11:17:57.508Z,510
2016-06-16T11:18:57.495Z,500
2016-06-16T11:19:57.483Z,495
2016-06-16T11:20:57.487Z,490
2016-06-16T11:21:57.458Z,485
2016-06-16T11:22:57.305Z,485
2016-06-16T11:23:57.449Z,485
2016-06-16T11:24:57.420Z,490
2016-06-16T11:25:57.423Z,475
2016-06-16T11:26:57.394Z,470
2016-06-16T11:27:57.383Z,470
2016-06-16T11:28:57.073Z,470
2016-06-16T11:29:57.342Z,470
2016-06-16T11:30:57.360Z,460
2016-06-16T11:31:57.332Z,445
2016-06-16T11:32:57.319Z,420
2016-06-16T11:33:57.136Z,415
2016-06-16T11:34:57.294Z,380
2016-06-16T11:35:57.283Z,365
2016-06-16T11:36:57.098Z,345
2016-06-16T11:37:57.084Z,335
2016-06-16T11:38:57.244Z,330
2016-06-16T11:39:57.232Z,335
2016-06-16T11:40:57.204Z,345
2016-06-16T11:41:57.207Z,370
2016-06-16T11:42:57.210Z,395
2016-06-16T11:43:57.025Z,420
2016-06-16T11:44:57.169Z,465
2016-06-16T11:45:57.000Z,465
2016-06-16T11:46:57.160Z,485
2016-06-16T11:47:57.115Z,495
2016-06-16T11:48:57.103Z,495
2016-06-16T11:49:57.106Z,490
2016-06-16T11:50:57.093Z,485
2016-06-16T11:51:57.081Z,475
2016-06-16T11:52:57.069Z,480
2016-06-16T11:53:57.166Z,490
2016-06-16T11:54:56.887Z,505
2016-06-16T11:55:57.031Z,500
2016-06-16T11:56:56.878Z,490
2016-06-16T11:57:56.834Z,480
2016-06-16T11:58:56.978Z,470
2016-06-16T11:59:56.966Z,450
2016-06-16T12:00:56.952Z,430
2016-06-16T12:01:56.925Z,420
2016-06-16T12:02:56.787Z,420
2016-06-16T12:03:56.446Z,425
2016-06-16T12:04:56.606Z,425
2016-06-16T12:05:56.890Z,425
2016-06-16T12:06:56.893Z,460
2016-06-16T12:07:56.427Z,475
2016-06-16T12:08:56.868Z,465
2016-06-16T12:09:56.855Z,470
2016-06-16T12:10:56.811Z,475
2016-06-16T12:11:56.658Z,470
2016-06-16T12:12:56.802Z,465
2016-06-16T12:13:56.648Z,460
2016-06-16T12:14:56.762Z,455
2016-06-16T12:15:56.640Z,455
2016-06-16T12:16:56.751Z,455
2016-06-16T12:17:56.740Z,440
2016-06-16T12:18:56.743Z,445
2016-06-16T12:19:56.714Z,465
2016-06-16T12:20:56.624Z,465
2016-06-16T12:21:56.767Z,470
2016-06-16T12:22:56.536Z,460
2016-06-16T12:23:56.664Z,445
2016-06-16T12:24:56.652Z,425
2016-06-16T12:25:56.514Z,420
2016-06-16T12:26:56.642Z,425
2016-06-16T12:27:56.613Z,440
2016-06-16T12:28:56.477Z,455
2016-06-16T12:29:56.605Z,460
2016-06-16T12:30:56.608Z,450
2016-06-16T12:31:56.408Z,420
2016-06-16T12:32:56.551Z,410
2016-06-16T12:33:56.382Z,400
2016-06-16T12:34:56.542Z,405
2016-06-16T12:35:56.513Z,415
2016-06-16T12:36:56.501Z,425
2016-06-16T12:37:56.333Z,440
2016-06-16T12:38:56.320Z,445
2016-06-16T12:39:56.463Z,460
2016-06-16T12:40:56.451Z,445
2016-06-16T12:41:56.422Z,420
2016-06-16T12:42:56.269Z,390
2016-06-16T12:43:56.413Z,375
2016-06-16T12:44:56.415Z,355
2016-06-16T12:45:56.419Z,345
2016-06-16T12:46:56.375Z,340
2016-06-16T12:47:56.050Z,345
2016-06-16T12:48:56.178Z,340
2016-06-16T12:49:56.181Z,320
2016-06-16T12:50:56.341Z,320
2016-06-16T12:51:56.173Z,325
2016-06-16T12:52:56.144Z,325
2016-06-16T12:58:50.944Z,320
2016-06-16T12:59:03.100Z,320
2016-06-16T13:00:03.353Z,315
2016-06-16T13:01:03.184Z,305
2016-06-16T13:02:03.204Z,290
2016-06-16T13:03:03.160Z,275
2016-06-16T13:04:03.303Z,265
2016-06-16T13:05:03.166Z,260
2016-06-16T13:06:03.340Z,260
2016-06-16T13:07:02.812Z,270
2016-06-16T13:08:03.503Z,270
2016-06-16T13:09:03.084Z,280
2016-06-16T13:10:03.446Z,280
2016-06-16T13:11:03.107Z,270
2016-06-16T13:12:03.203Z,255
2016-06-16T13:13:02.722Z,230
2016-06-16T13:14:03.397Z,220
2016-06-16T13:15:03.369Z,210
2016-06-16T13:16:02.731Z,200
2016-06-16T13:17:03.359Z,205
2016-06-16T13:18:03.190Z,205
2016-06-16T13:19:03.131Z,220
2016-06-16T13:20:03.180Z,230
2016-06-16T13:21:03.340Z,240
2016-06-16T13:22:03.296Z,235
2016-06-16T13:23:03.393Z,225
2016-06-16T13:24:03.412Z,235
2016-06-16T13:25:03.320Z,240
2016-06-16T13:26:03.262Z,265
2016-06-16T13:27:03.217Z,295
2016-06-16T13:28:03.065Z,305
2016-06-16T13:29:03.458Z,315
2016-06-16T13:30:02.711Z,335
2016-06-16T13:31:03.229Z,340
2016-06-16T13:32:03.046Z,350
2016-06-16T13:33:03.377Z,350
2016-06-16T13:34:02.911Z,355
2016-06-16T13:35:03.023Z,360
2016-06-16T13:36:02.886Z,370
2016-06-16T13:37:03.326Z,370
2016-06-16T13:38:03.110Z,365
2016-06-16T13:39:02.832Z,350
2016-06-16T13:40:02.180Z,340
2016-06-16T13:41:02.667Z,335
2016-06-16T13:42:02.827Z,330
2016-06-16T13:43:03.017Z,330
2016-06-16T13:44:02.786Z,330
2016-06-16T13:45:02.757Z,330
2016-06-16T13:46:02.964Z,340
2016-06-16T13:47:02.733Z,335
2016-06-16T13:48:02.563Z,330
2016-06-16T13:49:02.707Z,330
2016-06-16T13:50:03.132Z,325
2016-06-16T13:51:02.666Z,320
2016-06-16T13:52:02.639Z,320
2016-06-16T13:53:02.642Z,320
2016-06-16T13:58:46.201Z,320
2016-06-16T13:59:46.189Z,320
2016-06-16T14:00:46.175Z,315
2016-06-16T14:01:46.164Z,310
2016-06-16T14:02:46.151Z,315
2016-06-16T14:03:46.138Z,310
2016-06-16T14:04:45.985Z,315
2016-06-16T14:05:46.129Z,325
2016-06-16T14:06:45.945Z,350
2016-06-16T14:07:45.932Z,360
2016-06-16T14:08:46.076Z,380
2016-06-16T14:09:46.079Z,395
2016-06-16T14:10:46.051Z,405
2016-06-16T14:11:46.037Z,410
2016-06-16T14:12:46.229Z,420
2016-06-16T14:13:45.998Z,415
2016-06-16T14:14:45.828Z,400
2016-06-16T14:15:45.972Z,385
2016-06-16T14:16:45.976Z,375
2016-06-16T14:17:45.979Z,360
2016-06-16T14:18:45.795Z,355
2016-06-16T14:19:45.783Z,350
2016-06-16T14:20:45.928Z,340